IK3ZGB Weather Reports


Display with metric or nautical units.
time (UTC)temp
F
wind
direction
speed
MPH
gust
MPH
rain 1hr
in
rain 24hr
in
rain mn
in
humidity
%
barometer
mb
20260509060846 73 0.0 0.0 0.00 0.00 0.00 64 1017.9
20260509055845 72 0.0 0.0 0.00 0.00 0.00 63 1017.9
20260509054844 79 0.0 0.0 0.00 0.00 0.00 59 1017.9
20260509053845 76 0.0 0.0 0.00 0.00 0.00 61 1018.0
20260509052845 72 0.0 0.0 0.00 0.00 0.00 62 1018.3
20260509051844 68 0.0 0.0 0.00 0.00 0.00 66 1018.5
20260509050844 66 0.0 0.0 0.00 0.00 0.00 70 1018.8
20260509045844 64 0.0 0.0 0.00 0.00 0.00 72 1018.8
20260509044844 62 0.0 0.0 0.00 0.00 0.00 74 1018.7
20260509043844 60 0.0 0.0 0.00 0.00 0.00 76 1018.4
20260509042844 59 0.0 0.0 0.00 0.00 0.00 78 1018.2
20260509041844 57 0.0 0.0 0.00 0.00 0.00 79 1018.4
20260509040845 56 0.0 0.0 0.00 0.00 0.00 78 1018.3
20260509035845 56 0.0 0.0 0.00 0.00 0.00 78 1018.4
20260509034844 57 0.0 0.0 0.00 0.00 0.00 78 1018.2
20260509033845 58 0.0 0.0 0.00 0.00 0.00 78 1018.3
20260509032845 57 0.0 0.0 0.00 0.00 0.00 78 1018.1
20260509031845 58 0.0 0.0 0.00 0.00 0.00 78 1018.3
20260509030844 58 0.0 0.0 0.00 0.00 0.00 78 1018.3
20260509025844 58 0.0 0.0 0.00 0.00 0.00 78 1018.0
20260509024845 58 0.0 0.0 0.00 0.00 0.00 77 1018.2
20260509023844 58 0.0 0.0 0.00 0.00 0.00 77 1018.3
20260509022845 59 0.0 0.0 0.00 0.00 0.00 77 1018.1
20260509021844 58 0.0 0.0 0.00 0.00 0.00 77 1018.1
20260509020844 58 0.0 0.0 0.00 0.00 0.00 77 1017.9
20260509015845 58 0.0 0.0 0.00 0.00 0.00 77 1018.1
20260509014845 58 0.0 0.0 0.00 0.00 0.00 77 1018.0
20260509013844 59 0.0 0.0 0.00 0.00 0.00 77 1017.7
20260509012845 59 0.0 0.0 0.00 0.00 0.00 77 1017.8
20260509011844 59 0.0 0.0 0.00 0.00 0.00 76 1017.7
20260509010845 60 0.0 0.0 0.00 0.00 0.00 77 1017.6
20260509005845 59 0.0 0.0 0.00 0.00 0.00 76 1017.8
20260509004846 60 0.0 0.0 0.00 0.00 0.00 76 1017.7
20260509003845 60 0.0 0.0 0.00 0.00 0.00 75 1017.6
20260509002844 60 0.0 0.0 0.00 0.00 0.00 74 1017.6
20260509001845 60 0.0 0.0 0.00 0.00 0.00 76 1017.6
20260509000844 60 0.0 0.0 0.00 0.00 0.00 76 1017.7
20260508235845 61 0.0 0.0 0.00 0.00 0.00 76 1017.5
20260508234845 60 0.0 0.0 0.00 0.00 0.00 76 1017.6
20260508233845 60 0.0 0.0 0.00 0.00 0.00 75 1017.8
20260508232845 61 0.0 0.0 0.00 0.00 0.00 75 1017.6
20260508231845 61 0.0 0.0 0.00 0.00 0.00 74 1017.6
20260508230846 61 0.0 0.0 0.00 0.00 0.00 74 1017.6
20260508225845 61 0.0 0.0 0.00 0.00 0.00 75 1017.5
20260508224844 62 0.0 0.0 0.00 0.00 0.00 75 1017.5
20260508223845 61 0.0 0.0 0.00 0.00 0.00 76 1017.8
20260508222844 62 0.0 0.0 0.00 0.00 0.00 75 1017.6
20260508221845 62 0.0 0.0 0.00 0.00 0.00 75 1017.5
20260508220845 62 0.0 0.0 0.00 0.00 0.00 74 1017.4
20260508215845 62 0.0 0.0 0.00 0.00 0.00 74 1017.5
20260508214844 63 0.0 0.0 0.00 0.00 0.00 74 1017.6
20260508213844 62 0.0 0.0 0.00 0.00 0.00 73 1017.5
20260508212844 63 0.0 0.0 0.00 0.00 0.00 73 1017.5
20260508211844 64 0.0 0.0 0.00 0.00 0.00 72 1017.3
20260508210844 64 0.0 0.0 0.00 0.00 0.00 73 1017.4
20260508205845 64 0.0 0.0 0.00 0.00 0.00 73 1017.4
20260508204846 64 0.0 0.0 0.00 0.00 0.00 72 1017.3
20260508203844 65 0.0 0.0 0.00 0.00 0.00 72 1017.1
20260508202845 65 0.0 0.0 0.00 0.00 0.00 72 1017.1
20260508201845 66 0.0 0.0 0.00 0.00 0.00 71 1016.9
20260508200845 66 0.0 0.0 0.00 0.00 0.00 71 1016.8
20260508195844 66 0.0 0.0 0.00 0.00 0.00 70 1017.0
20260508194845 67 0.0 0.0 0.00 0.00 0.00 70 1016.7
20260508193844 66 0.0 0.0 0.00 0.00 0.00 69 1016.3
20260508192845 67 0.0 0.0 0.00 0.00 0.00 68 1016.3
20260508191845 68 0.0 0.0 0.00 0.00 0.00 67 1016.0
20260508190843 69 0.0 0.0 0.00 0.00 0.00 67 1015.9
20260508185845 69 0.0 0.0 0.00 0.00 0.00 67 1015.9
20260508184845 69 0.0 0.0 0.00 0.00 0.00 67 1015.8
20260508183844 70 0.0 0.0 0.00 0.00 0.00 66 1015.6
20260508182844 70 0.0 0.0 0.00 0.00 0.00 66 1015.4
20260508181844 70 0.0 0.0 0.00 0.00 0.00 65 1015.5
20260508180845 70 0.0 0.0 0.00 0.00 0.00 64 1015.2
20260508175845 71 0.0 0.0 0.00 0.00 0.00 63 1015.1
20260508174846 71 0.0 0.0 0.00 0.00 0.00 62 1015.2
20260508173845 71 0.0 0.0 0.00 0.00 0.00 61 1015.3
20260508172845 72 0.0 0.0 0.00 0.00 0.00 61 1015.0
20260508171844 72 0.0 0.0 0.00 0.00 0.00 60 1015.0
20260508170845 72 0.0 0.0 0.00 0.00 0.00 61 1014.8
20260508165844 72 0.0 0.0 0.00 0.00 0.00 60 1014.9
20260508164844 72 0.0 0.0 0.00 0.00 0.00 60 1014.8
20260508163846 72 0.0 0.0 0.00 0.00 0.00 59 1015.0
20260508162844 72 0.0 0.0 0.00 0.00 0.00 59 1014.9
20260508161844 72 0.0 0.0 0.00 0.00 0.00 59 1014.8
20260508160845 73 0.0 0.0 0.00 0.00 0.00 59 1014.9
20260508155844 73 0.0 0.0 0.00 0.00 0.00 57 1014.9
20260508154845 73 0.0 0.0 0.00 0.00 0.00 59 1014.9
20260508153844 73 0.0 0.0 0.00 0.00 0.00 58 1014.9
20260508152845 73 0.0 0.0 0.00 0.00 0.00 58 1014.9
20260508151844 74 0.0 0.0 0.00 0.00 0.00 58 1015.1
20260508150843 74 0.0 0.0 0.00 0.00 0.00 57 1015.1
20260508145845 74 0.0 0.0 0.00 0.00 0.00 58 1015.3
20260508144845 74 0.0 0.0 0.00 0.00 0.00 58 1015.3
20260508143845 74 0.0 0.0 0.00 0.00 0.00 59 1015.4
20260508142845 74 0.0 0.0 0.00 0.00 0.00 58 1015.3
20260508141844 74 0.0 0.0 0.00 0.00 0.00 60 1015.4
20260508140845 74 0.0 0.0 0.00 0.00 0.00 59 1015.5
20260508135844 74 0.0 0.0 0.00 0.00 0.00 60 1015.7
20260508134845 74 0.0 0.0 0.00 0.00 0.00 59 1015.8
20260508133845 74 0.0 0.0 0.00 0.00 0.00 59 1016.0
20260508132845 74 0.0 0.0 0.00 0.00 0.00 59 1015.8
20260508131845 74 0.0 0.0 0.00 0.00 0.00 61 1015.9
20260508130843 73 0.0 0.0 0.00 0.00 0.00 61 1015.8
20260508125846 74 0.0 0.0 0.00 0.00 0.00 61 1016.0
20260508124845 74 0.0 0.0 0.00 0.00 0.00 59 1016.3
20260508123844 73 0.0 0.0 0.00 0.00 0.00 61 1016.4
20260508122843 74 0.0 0.0 0.00 0.00 0.00 62 1016.2
20260508121844 74 0.0 0.0 0.00 0.00 0.00 60 1016.3
20260508120844 74 0.0 0.0 0.00 0.00 0.00 62 1016.5
20260508115845 73 0.0 0.0 0.00 0.00 0.00 61 1016.5
20260508114844 73 0.0 0.0 0.00 0.00 0.00 61 1016.5
20260508113845 72 0.0 0.0 0.00 0.00 0.00 61 1016.5
20260508112846 72 0.0 0.0 0.00 0.00 0.00 62 1016.7
20260508111845 73 0.0 0.0 0.00 0.00 0.00 62 1016.7
20260508110844 74 0.0 0.0 0.00 0.00 0.00 62 1016.6
20260508105845 73 0.0 0.0 0.00 0.00 0.00 62 1017.0
20260508104845 73 0.0 0.0 0.00 0.00 0.00 64 1016.8
20260508103844 73 0.0 0.0 0.00 0.00 0.00 63 1016.8
20260508102843 73 0.0 0.0 0.00 0.00 0.00 63 1016.9
20260508101844 74 0.0 0.0 0.00 0.00 0.00 63 1016.9
20260508100844 71 0.0 0.0 0.00 0.00 0.00 62 1017.2
20260508095845 71 0.0 0.0 0.00 0.00 0.00 64 1017.2
20260508094845 70 0.0 0.0 0.00 0.00 0.00 64 1017.3
20260508093844 73 0.0 0.0 0.00 0.00 0.00 66 1017.4
20260508092845 70 0.0 0.0 0.00 0.00 0.00 65 1017.5
20260508091844 71 0.0 0.0 0.00 0.00 0.00 66 1017.4
20260508090844 71 0.0 0.0 0.00 0.00 0.00 66 1017.5
20260508085844 70 0.0 0.0 0.00 0.00 0.00 67 1017.7
20260508084845 68 0.0 0.0 0.00 0.00 0.00 66 1017.8
20260508083844 69 0.0 0.0 0.00 0.00 0.00 67 1017.7
20260508082844 69 0.0 0.0 0.00 0.00 0.00 68 1017.6
20260508081844 67 0.0 0.0 0.00 0.00 0.00 67 1017.6
20260508080846 66 0.0 0.0 0.00 0.00 0.00 69 1017.6
20260508075845 66 0.0 0.0 0.00 0.00 0.00 68 1017.6
20260508074844 67 0.0 0.0 0.00 0.00 0.00 70 1017.3
20260508073845 66 0.0 0.0 0.00 0.00 0.00 69 1017.5
20260508072844 66 0.0 0.0 0.00 0.00 0.00 70 1017.5
20260508071844 66 0.0 0.0 0.00 0.00 0.00 69 1017.4
20260508070844 67 0.0 0.0 0.00 0.00 0.00 68 1017.5
20260508065844 66 0.0 0.0 0.00 0.00 0.00 69 1017.4
20260508064845 66 0.0 0.0 0.00 0.00 0.00 68 1017.3
20260508063844 68 0.0 0.0 0.00 0.00 0.00 66 1017.5
20260508062844 72 0.0 0.0 0.00 0.00 0.00 65 1017.1
20260508061844 70 0.0 0.0 0.00 0.00 0.00 64 1017.2